createdAt,value
2023-05-02T00:00:11.270Z,2.40
2023-05-02T00:02:43.627Z,2.17
2023-05-02T00:05:12.842Z,2.50
2023-05-02T00:07:39.447Z,2.50
2023-05-02T00:10:06.254Z,2.60
2023-05-02T00:12:32.759Z,2.53
2023-05-02T00:14:59.259Z,2.58
2023-05-02T00:17:29.277Z,2.80
2023-05-02T00:19:55.801Z,2.92
2023-05-02T00:22:23.318Z,2.63
2023-05-02T00:24:49.854Z,2.40
2023-05-02T00:27:16.401Z,2.35
2023-05-02T00:29:43.010Z,2.88
2023-05-02T00:32:09.531Z,2.88
2023-05-02T00:34:36.082Z,3.67
2023-05-02T00:37:02.584Z,2.85
2023-05-02T00:39:29.130Z,2.97
2023-05-02T00:41:59.478Z,2.45
2023-05-02T00:44:26.169Z,2.40
2023-05-02T00:46:52.907Z,2.20
2023-05-02T00:49:27.107Z,2.22
2023-05-02T00:51:57.566Z,2.25
2023-05-02T00:54:24.314Z,2.28
2023-05-02T00:56:51.089Z,2.20
2023-05-02T01:03:51.111Z,2.33
2023-05-02T01:09:11.622Z,2.47
2023-05-02T01:15:07.654Z,2.65
2023-05-02T01:17:34.947Z,2.65
2023-05-02T01:20:15.968Z,2.78
2023-05-02T01:22:43.028Z,2.80
2023-05-02T01:25:44.221Z,2.40
2023-05-02T01:31:23.785Z,3.10
2023-05-02T01:33:51.785Z,3.08
2023-05-02T01:37:12.375Z,3.13
2023-05-02T01:39:40.201Z,3.25
2023-05-02T01:42:06.862Z,3.08
2023-05-02T01:44:35.964Z,3.47
2023-05-02T01:47:08.063Z,3.85
2023-05-02T01:49:35.458Z,4.15
2023-05-02T01:52:03.962Z,3.50
2023-05-02T01:54:31.007Z,4.45
2023-05-02T01:56:58.519Z,3.85
2023-05-02T01:59:28.153Z,4.05
2023-05-02T02:01:55.163Z,4.90
2023-05-02T02:04:22.475Z,4.63
2023-05-02T02:10:10.710Z,4.88
2023-05-02T02:12:43.045Z,5.22
2023-05-02T02:15:15.744Z,5.32
2023-05-02T02:17:59.218Z,4.25
2023-05-02T02:20:26.998Z,4.90
2023-05-02T02:22:53.732Z,5.32
2023-05-02T02:25:20.560Z,5.50
2023-05-02T02:27:56.991Z,4.63
2023-05-02T02:30:23.547Z,5.13
2023-05-02T02:32:50.392Z,5.63
2023-05-02T02:35:17.050Z,5.30
2023-05-02T02:38:17.589Z,5.30
2023-05-02T02:43:48.219Z,5.00
2023-05-02T02:46:47.212Z,5.10
2023-05-02T02:49:22.828Z,4.95
2023-05-02T02:52:21.583Z,5.30
2023-05-02T02:55:24.800Z,5.30
2023-05-02T02:58:33.248Z,5.30
2023-05-02T03:01:00.844Z,4.97
2023-05-02T03:03:38.246Z,5.28
2023-05-02T03:08:57.038Z,5.63
2023-05-02T03:11:38.914Z,5.78
2023-05-02T03:14:08.488Z,5.25
2023-05-02T03:16:39.597Z,5.82
2023-05-02T03:19:06.763Z,6.60
2023-05-02T03:21:33.525Z,5.30
2023-05-02T03:24:00.769Z,5.57
2023-05-02T03:26:39.721Z,5.97
2023-05-02T03:29:06.238Z,6.07
2023-05-02T03:31:42.075Z,5.90
2023-05-02T03:34:08.612Z,6.32
2023-05-02T03:36:41.212Z,5.78
2023-05-02T03:39:07.738Z,5.43
2023-05-02T03:41:44.601Z,5.60
2023-05-02T03:44:11.306Z,6.18
2023-05-02T03:46:37.928Z,5.78
2023-05-02T03:49:04.531Z,6.07
2023-05-02T03:51:31.106Z,6.05
2023-05-02T03:53:57.586Z,5.53
2023-05-02T03:56:24.155Z,5.90
2023-05-02T03:58:50.706Z,6.60
2023-05-02T04:01:17.318Z,5.82
2023-05-02T04:03:43.964Z,6.45
2023-05-02T04:06:10.768Z,6.80
2023-05-02T04:09:02.991Z,6.70
2023-05-02T04:11:30.780Z,6.40
2023-05-02T04:13:57.241Z,6.40
2023-05-02T04:16:32.830Z,6.40
2023-05-02T04:21:39.935Z,6.40
2023-05-02T04:24:15.669Z,6.45
2023-05-02T04:26:42.163Z,6.68
2023-05-02T04:29:17.764Z,5.97
2023-05-02T04:31:44.575Z,6.57
2023-05-02T04:34:16.387Z,5.65
2023-05-02T04:36:45.439Z,6.07
2023-05-02T04:41:52.515Z,7.40
2023-05-02T04:44:24.610Z,6.20
2023-05-02T04:46:51.129Z,6.55
2023-05-02T04:49:17.710Z,6.75
2023-05-02T04:51:44.659Z,6.00
2023-05-02T04:54:12.342Z,6.40
2023-05-02T04:56:38.906Z,6.28
2023-05-02T04:59:39.218Z,6.82
2023-05-02T05:04:42.277Z,6.40
2023-05-02T05:07:09.013Z,5.80
2023-05-02T05:09:35.589Z,6.03
2023-05-02T05:12:02.154Z,5.93
2023-05-02T05:14:34.047Z,6.38
2023-05-02T05:17:07.240Z,5.68
2023-05-02T05:19:33.815Z,5.65
2023-05-02T05:22:00.355Z,5.90
2023-05-02T05:24:42.001Z,5.50
2023-05-02T05:27:08.560Z,5.20
2023-05-02T05:32:41.181Z,5.13
2023-05-02T05:35:37.019Z,5.65
2023-05-02T05:38:10.044Z,5.93
2023-05-02T05:40:36.578Z,4.88
2023-05-02T05:46:18.649Z,5.20
2023-05-02T05:49:04.139Z,5.13
2023-05-02T05:51:44.232Z,4.70
2023-05-02T05:54:24.196Z,3.83
2023-05-02T05:57:44.928Z,4.60
2023-05-02T06:00:23.189Z,5.05
2023-05-02T06:05:51.498Z,4.82
2023-05-02T06:09:12.868Z,4.50
2023-05-02T06:11:39.433Z,4.30
2023-05-02T06:14:06.149Z,4.30
2023-05-02T06:16:35.715Z,4.35
2023-05-02T06:19:02.343Z,4.80
2023-05-02T06:21:28.883Z,4.30
2023-05-02T06:23:55.422Z,4.40
2023-05-02T06:26:25.025Z,4.50
2023-05-02T06:28:55.289Z,3.90
2023-05-02T06:34:49.913Z,4.03
2023-05-02T06:37:16.484Z,3.88
2023-05-02T06:39:45.448Z,3.90
2023-05-02T06:42:11.980Z,3.70
2023-05-02T06:44:38.484Z,3.50
2023-05-02T06:47:20.134Z,3.23
2023-05-02T06:49:46.761Z,3.40
2023-05-02T06:52:13.253Z,2.90
2023-05-02T06:54:42.877Z,2.90
2023-05-02T06:57:25.053Z,3.17
2023-05-02T06:59:51.568Z,3.00
2023-05-02T07:02:24.191Z,3.00
2023-05-02T07:04:50.811Z,3.10
2023-05-02T07:07:17.629Z,3.70
2023-05-02T07:09:44.129Z,3.13
2023-05-02T07:12:10.697Z,3.00
2023-05-02T07:14:37.231Z,2.70
2023-05-02T07:17:03.847Z,3.27
2023-05-02T07:19:30.357Z,3.03
2023-05-02T07:21:56.899Z,3.30
2023-05-02T07:24:23.508Z,2.67
2023-05-02T07:26:50.029Z,2.90
2023-05-02T07:29:16.554Z,3.30
2023-05-02T07:31:43.947Z,3.03
2023-05-02T07:34:10.470Z,3.40
2023-05-02T07:36:37.036Z,3.00
2023-05-02T07:39:03.686Z,3.20
2023-05-02T07:41:34.390Z,3.30
2023-05-02T07:44:03.416Z,3.37
2023-05-02T07:46:52.704Z,3.47
2023-05-02T07:49:19.527Z,3.75
2023-05-02T07:51:46.050Z,3.93
2023-05-02T07:54:20.176Z,3.70
2023-05-02T07:56:46.919Z,3.70
2023-05-02T07:59:13.832Z,3.53
2023-05-02T08:01:49.570Z,3.90
2023-05-02T08:05:05.706Z,3.87
2023-05-02T08:07:32.525Z,4.03
2023-05-02T08:09:59.417Z,3.47
2023-05-02T08:12:26.128Z,2.93
2023-05-02T08:14:55.654Z,3.47
2023-05-02T08:17:27.795Z,3.53
2023-05-02T08:22:41.556Z,3.17
2023-05-02T08:29:02.231Z,4.23
2023-05-02T08:31:31.982Z,3.47
2023-05-02T08:33:58.544Z,3.33
2023-05-02T08:36:25.193Z,3.73
2023-05-02T08:38:51.675Z,3.83
2023-05-02T08:41:19.032Z,3.63
2023-05-02T08:43:51.888Z,3.80
2023-05-02T08:46:18.686Z,3.57
2023-05-02T08:48:46.312Z,3.97
2023-05-02T08:51:15.154Z,4.73
2023-05-02T08:53:45.527Z,4.00
2023-05-02T08:56:12.807Z,4.47
2023-05-02T08:58:41.098Z,4.00
2023-05-02T09:05:06.853Z,3.67
2023-05-02T09:07:47.389Z,3.93
2023-05-02T09:10:14.820Z,3.80
2023-05-02T09:12:41.837Z,4.20
2023-05-02T09:15:20.788Z,3.63
2023-05-02T09:17:48.392Z,3.88
2023-05-02T09:20:59.091Z,4.10
2023-05-02T09:23:51.137Z,4.07
2023-05-02T09:26:29.623Z,3.73
2023-05-02T09:29:02.464Z,4.50
2023-05-02T09:31:53.941Z,4.10
2023-05-02T09:34:18.542Z,4.25
2023-05-02T09:36:49.673Z,4.13
2023-05-02T09:40:01.302Z,3.93
2023-05-02T09:42:31.437Z,3.50
2023-05-02T09:44:58.369Z,3.53
2023-05-02T09:47:25.387Z,3.37
2023-05-02T09:49:52.040Z,3.90
2023-05-02T09:52:40.570Z,3.97
2023-05-02T09:58:36.153Z,4.00
2023-05-02T10:01:02.978Z,4.50
2023-05-02T10:03:30.107Z,4.80
2023-05-02T10:06:09.517Z,4.13
2023-05-02T10:08:36.650Z,4.30
2023-05-02T10:11:09.545Z,3.83
2023-05-02T10:13:58.163Z,3.50
2023-05-02T10:16:28.083Z,3.97
2023-05-02T10:21:32.361Z,4.37
2023-05-02T10:24:02.176Z,3.90
2023-05-02T10:26:29.132Z,3.83
2023-05-02T10:28:56.674Z,3.60
2023-05-02T10:31:48.481Z,3.40
2023-05-02T10:34:18.782Z,3.53
2023-05-02T10:36:49.581Z,2.87
2023-05-02T10:39:16.190Z,3.40
2023-05-02T10:41:43.177Z,3.50
2023-05-02T10:44:38.116Z,3.10
2023-05-02T10:47:26.872Z,2.63
2023-05-02T10:50:03.867Z,2.85
2023-05-02T10:52:45.313Z,2.50
2023-05-02T10:55:21.694Z,2.53
2023-05-02T10:58:00.511Z,2.70
2023-05-02T11:00:40.392Z,2.30
2023-05-02T11:03:07.147Z,2.60
2023-05-02T11:09:14.002Z,3.07
2023-05-02T11:11:51.789Z,2.70
2023-05-02T11:14:39.543Z,2.90
2023-05-02T11:17:08.125Z,2.60
2023-05-02T11:19:37.633Z,2.90
2023-05-02T11:22:19.373Z,3.10
2023-05-02T11:24:49.658Z,2.70
2023-05-02T11:27:31.309Z,2.53
2023-05-02T11:30:01.793Z,3.00
2023-05-02T11:32:43.978Z,3.27
2023-05-02T11:35:16.792Z,2.30
2023-05-02T11:37:43.414Z,3.37
2023-05-02T11:40:13.835Z,3.00
2023-05-02T11:42:42.131Z,3.60
2023-05-02T11:45:08.914Z,3.40
2023-05-02T11:47:35.473Z,3.03
2023-05-02T11:50:05.182Z,3.47
2023-05-02T11:52:37.388Z,3.35
2023-05-02T11:55:06.312Z,2.90
2023-05-02T11:57:36.466Z,2.70
2023-05-02T12:00:10.369Z,2.67
2023-05-02T12:02:37.860Z,2.83
2023-05-02T12:05:13.021Z,3.30
2023-05-02T12:07:49.134Z,3.60
2023-05-02T12:10:18.113Z,3.03
2023-05-02T12:12:44.895Z,3.10
2023-05-02T12:15:12.486Z,3.10
2023-05-02T12:17:47.955Z,2.90
2023-05-02T12:20:15.014Z,2.63
2023-05-02T12:22:41.649Z,2.83
2023-05-02T12:25:10.912Z,2.20
2023-05-02T12:27:40.317Z,1.80
2023-05-02T12:30:25.656Z,1.95
2023-05-02T12:33:10.344Z,2.00
2023-05-02T12:35:39.276Z,2.40
2023-05-02T12:38:24.148Z,2.28
2023-05-02T12:40:56.397Z,2.20
2023-05-02T12:43:26.455Z,2.00
2023-05-02T12:46:09.847Z,2.77
2023-05-02T12:48:36.378Z,2.30
2023-05-02T12:51:02.859Z,2.83
2023-05-02T12:53:43.105Z,2.27
2023-05-02T12:56:10.641Z,2.63
2023-05-02T12:58:41.844Z,3.10
2023-05-02T13:01:08.862Z,2.77
2023-05-02T13:03:35.590Z,2.77
2023-05-02T13:06:02.652Z,2.53
2023-05-02T13:08:32.366Z,2.13
2023-05-02T13:10:58.935Z,2.38
2023-05-02T13:13:25.537Z,2.33
2023-05-02T13:15:52.074Z,2.33
2023-05-02T13:18:19.832Z,2.33
2023-05-02T13:20:49.878Z,2.43
2023-05-02T13:23:16.498Z,2.33
2023-05-02T13:28:51.011Z,2.50
2023-05-02T13:31:17.635Z,2.40
2023-05-02T13:33:44.292Z,2.07
2023-05-02T13:36:16.714Z,2.20
2023-05-02T13:38:43.198Z,2.10
2023-05-02T13:41:09.800Z,2.67
2023-05-02T13:43:36.282Z,2.60
2023-05-02T13:46:02.861Z,2.77
2023-05-02T13:48:29.413Z,2.47
2023-05-02T13:50:55.931Z,2.23
2023-05-02T13:53:22.446Z,2.23
2023-05-02T13:55:56.540Z,2.30
2023-05-02T14:01:10.420Z,1.90
2023-05-02T14:04:02.074Z,1.70
2023-05-02T14:06:28.789Z,1.70
2023-05-02T14:09:10.730Z,1.90
2023-05-02T14:11:40.413Z,2.40
2023-05-02T14:14:06.894Z,2.00
2023-05-02T14:16:42.623Z,2.10
2023-05-02T14:19:11.632Z,2.50
2023-05-02T14:21:41.151Z,2.10
2023-05-02T14:24:07.640Z,2.10
2023-05-02T14:26:44.430Z,1.77
2023-05-02T14:29:13.153Z,1.77
2023-05-02T14:31:39.711Z,2.03
2023-05-02T14:34:30.956Z,2.13
2023-05-02T14:37:00.500Z,2.00
2023-05-02T14:39:26.988Z,2.30
2023-05-02T14:41:56.536Z,2.40
2023-05-02T14:44:23.073Z,2.28
2023-05-02T14:46:49.779Z,2.20
2023-05-02T14:50:02.931Z,1.63
2023-05-02T14:52:32.559Z,2.30
2023-05-02T14:58:17.360Z,1.50
2023-05-02T15:00:44.059Z,1.70
2023-05-02T15:03:10.641Z,1.57
2023-05-02T15:05:37.381Z,2.13
2023-05-02T15:08:04.161Z,1.80
2023-05-02T15:10:40.499Z,1.87
2023-05-02T15:13:07.063Z,2.27
2023-05-02T15:15:33.589Z,2.23
2023-05-02T15:18:00.220Z,1.83
2023-05-02T15:20:26.931Z,2.00
2023-05-02T15:22:53.506Z,2.20
2023-05-02T15:25:22.133Z,2.10
2023-05-02T15:27:48.688Z,2.70
2023-05-02T15:30:21.173Z,2.30
2023-05-02T15:32:52.346Z,2.07
2023-05-02T15:35:19.051Z,1.85
2023-05-02T15:37:48.572Z,2.00
2023-05-02T15:40:21.111Z,2.05
2023-05-02T15:42:50.675Z,1.77
2023-05-02T15:45:20.367Z,1.98
2023-05-02T15:47:46.913Z,1.88
2023-05-02T15:54:31.805Z,2.20
2023-05-02T15:57:13.709Z,1.70
2023-05-02T15:59:40.216Z,1.70
2023-05-02T16:02:06.967Z,1.70
2023-05-02T16:04:33.610Z,2.17
2023-05-02T16:07:06.371Z,1.47
2023-05-02T16:09:36.131Z,1.50
2023-05-02T16:12:13.048Z,1.55
2023-05-02T16:14:39.573Z,1.50
2023-05-02T16:17:09.128Z,1.63
2023-05-02T16:19:38.631Z,1.77
2023-05-02T16:22:11.270Z,1.45
2023-05-02T16:24:37.810Z,1.90
2023-05-02T16:27:04.290Z,1.77
2023-05-02T16:29:30.798Z,2.40
2023-05-02T16:31:59.900Z,1.80
2023-05-02T16:34:26.666Z,2.13
2023-05-02T16:36:53.164Z,2.20
2023-05-02T16:39:19.749Z,2.13
2023-05-02T16:41:46.627Z,1.90
2023-05-02T16:44:13.093Z,1.70
2023-05-02T16:46:39.699Z,1.63
2023-05-02T16:49:06.251Z,1.90
2023-05-02T16:51:32.827Z,1.67
2023-05-02T17:01:58.405Z,2.20
2023-05-02T17:04:24.962Z,2.20
2023-05-02T17:07:21.008Z,2.37
2023-05-02T17:10:04.234Z,2.00
2023-05-02T17:12:31.203Z,2.10
2023-05-02T17:15:04.270Z,2.40
2023-05-02T17:17:31.030Z,2.40
2023-05-02T17:20:00.915Z,2.27
2023-05-02T17:22:28.008Z,2.50
2023-05-02T17:24:54.912Z,2.40
2023-05-02T17:32:06.433Z,2.37
2023-05-02T17:34:59.615Z,2.43
2023-05-02T17:37:26.127Z,2.40
2023-05-02T17:39:52.728Z,2.27
2023-05-02T17:42:19.282Z,2.10
2023-05-02T17:45:02.404Z,1.90
2023-05-02T17:47:32.623Z,1.90
2023-05-02T17:57:31.047Z,1.73
2023-05-02T17:59:57.723Z,2.08
2023-05-02T18:02:25.593Z,2.13
2023-05-02T18:07:38.167Z,2.70
2023-05-02T18:10:05.487Z,2.80
2023-05-02T18:12:32.229Z,2.63
2023-05-02T18:14:58.770Z,3.07
2023-05-02T18:17:27.688Z,2.60
2023-05-02T18:19:54.310Z,2.90
2023-05-02T18:25:52.847Z,3.50
2023-05-02T18:28:19.526Z,3.67
2023-05-02T18:30:46.089Z,3.53
2023-05-02T18:33:55.233Z,3.40
2023-05-02T18:36:46.724Z,3.58
2023-05-02T18:39:13.300Z,3.40
2023-05-02T18:41:40.004Z,3.57
2023-05-02T18:44:07.060Z,3.97
2023-05-02T18:46:33.639Z,3.87
2023-05-02T18:49:00.326Z,3.70
2023-05-02T18:51:36.072Z,4.00
2023-05-02T18:54:27.385Z,4.13
2023-05-02T18:56:53.931Z,3.43
2023-05-02T18:59:20.750Z,3.40
2023-05-02T19:01:47.529Z,3.33
2023-05-02T19:04:14.186Z,3.33
2023-05-02T19:06:41.599Z,3.50
2023-05-02T19:09:08.173Z,3.30
2023-05-02T19:11:34.708Z,3.10
2023-05-02T19:14:03.381Z,2.90
2023-05-02T19:16:30.004Z,2.95
2023-05-02T19:18:56.647Z,3.10
2023-05-02T19:22:00.580Z,3.00
2023-05-02T19:27:52.541Z,3.03
2023-05-02T19:30:18.010Z,2.83
2023-05-02T19:32:47.235Z,2.78
2023-05-02T19:35:16.091Z,2.88
2023-05-02T19:37:42.651Z,2.60
2023-05-02T19:40:09.726Z,2.40
2023-05-02T19:42:36.340Z,2.67
2023-05-02T19:45:03.235Z,2.70
2023-05-02T19:47:30.019Z,2.60
2023-05-02T19:49:56.710Z,2.63
2023-05-02T19:52:23.290Z,2.60
2023-05-02T19:54:59.530Z,2.70
2023-05-02T19:57:26.238Z,2.45
2023-05-02T19:59:52.785Z,2.67
2023-05-02T20:02:22.463Z,2.30
2023-05-02T20:04:52.036Z,2.50
2023-05-02T20:07:18.565Z,1.95
2023-05-02T20:09:45.115Z,2.33
2023-05-02T20:12:11.668Z,2.20
2023-05-02T20:14:38.259Z,2.28
2023-05-02T20:17:04.910Z,2.55
2023-05-02T20:19:33.052Z,2.10
2023-05-02T20:21:59.613Z,2.42
2023-05-02T20:24:30.510Z,2.30
2023-05-02T20:26:57.025Z,2.20
2023-05-02T20:29:23.601Z,2.38
2023-05-02T20:32:02.360Z,2.45
2023-05-02T20:34:28.937Z,2.75
2023-05-02T20:36:55.489Z,2.53
2023-05-02T20:39:22.052Z,3.15
2023-05-02T20:41:48.625Z,2.67
2023-05-02T20:44:15.532Z,2.97
2023-05-02T20:46:48.601Z,2.72
2023-05-02T20:49:15.147Z,3.30
2023-05-02T20:51:41.949Z,2.97
2023-05-02T20:54:08.462Z,2.95
2023-05-02T20:56:34.941Z,2.80
2023-05-02T20:59:07.649Z,3.17
2023-05-02T21:01:34.190Z,3.30
2023-05-02T21:04:03.972Z,3.03
2023-05-02T21:06:33.832Z,2.85
2023-05-02T21:11:41.669Z,2.83
2023-05-02T21:14:08.332Z,2.50
2023-05-02T21:16:35.029Z,2.60
2023-05-02T21:19:04.665Z,2.50
2023-05-02T21:21:31.190Z,2.30
2023-05-02T21:23:57.980Z,2.30
2023-05-02T21:26:33.026Z,2.63
2023-05-02T21:29:09.412Z,2.55
2023-05-02T21:31:37.041Z,2.95
2023-05-02T21:34:03.623Z,2.60
2023-05-02T21:36:32.980Z,2.65
2023-05-02T21:38:59.496Z,2.10
2023-05-02T21:41:26.039Z,2.70
2023-05-02T21:43:52.542Z,2.47
2023-05-02T21:46:19.089Z,3.33
2023-05-02T21:48:45.615Z,2.95
2023-05-02T21:51:14.426Z,2.90
2023-05-02T21:53:41.058Z,2.95
2023-05-02T21:56:08.391Z,2.78
2023-05-02T21:58:35.002Z,3.10
2023-05-02T22:01:01.688Z,2.83
2023-05-02T22:03:28.553Z,3.00
2023-05-02T22:05:55.931Z,3.13
2023-05-02T22:08:22.430Z,3.38
2023-05-02T22:10:48.937Z,3.42
2023-05-02T22:13:15.514Z,3.35
2023-05-02T22:15:42.558Z,3.53
2023-05-02T22:18:09.136Z,3.00
2023-05-02T22:20:35.824Z,2.92
2023-05-02T22:23:02.393Z,3.53
2023-05-02T22:25:28.982Z,3.00
2023-05-02T22:27:55.502Z,3.13
2023-05-02T22:30:22.111Z,2.80
2023-05-02T22:32:48.627Z,2.70
2023-05-02T22:35:15.207Z,2.80
2023-05-02T22:37:41.758Z,3.53
2023-05-02T22:40:09.226Z,3.38
2023-05-02T22:42:35.855Z,3.30
2023-05-02T22:45:02.485Z,3.53
2023-05-02T22:47:29.065Z,3.60
2023-05-02T22:49:55.749Z,2.97
2023-05-02T22:52:22.295Z,3.50
2023-05-02T22:54:48.852Z,3.80
2023-05-02T22:57:15.399Z,3.95
2023-05-02T22:59:42.333Z,3.70
2023-05-02T23:02:10.347Z,4.00
2023-05-02T23:04:36.892Z,3.60
2023-05-02T23:07:03.407Z,4.18
2023-05-02T23:09:29.910Z,4.50
2023-05-02T23:11:56.470Z,4.47
2023-05-02T23:14:22.947Z,4.70
2023-05-02T23:16:49.945Z,4.78
2023-05-02T23:19:19.947Z,4.68
2023-05-02T23:21:46.477Z,4.80
2023-05-02T23:24:36.555Z,4.63
2023-05-02T23:27:09.932Z,4.80
2023-05-02T23:29:39.786Z,4.78
2023-05-02T23:32:06.528Z,5.47
2023-05-02T23:34:33.040Z,5.65
2023-05-02T23:36:59.635Z,5.13
2023-05-02T23:43:08.211Z,4.88
2023-05-02T23:45:40.810Z,5.15
2023-05-02T23:48:07.498Z,5.75
2023-05-02T23:50:34.116Z,5.55
2023-05-02T23:53:00.672Z,5.80
2023-05-02T23:55:45.365Z,5.55
2023-05-02T23:58:15.265Z,5.53
